sensor_id;sensor_type;location;lat;lon;timestamp;pressure;altitude;pressure_sealevel;temperature;humidity
61039;BME280;46919;45.816;3.104;2023-12-20T00:01:38;98450.44;;;2.22;100.00
61039;BME280;46919;45.816;3.104;2023-12-20T00:04:04;98440.56;;;2.14;100.00
61039;BME280;46919;45.816;3.104;2023-12-20T00:06:30;98436.69;;;2.09;100.00
61039;BME280;46919;45.816;3.104;2023-12-20T00:08:56;98442.31;;;2.06;100.00
61039;BME280;46919;45.816;3.104;2023-12-20T00:11:23;98431.81;;;2.04;100.00
61039;BME280;46919;45.816;3.104;2023-12-20T00:13:48;98419.50;;;2.03;100.00
61039;BME280;46919;45.816;3.104;2023-12-20T00:16:14;98429.47;;;2.01;100.00
61039;BME280;46919;45.816;3.104;2023-12-20T00:18:39;98422.69;;;2.07;100.00
61039;BME280;46919;45.816;3.104;2023-12-20T00:21:05;98431.50;;;2.07;100.00
61039;BME280;46919;45.816;3.104;2023-12-20T00:23:30;98436.84;;;2.07;100.00
61039;BME280;46919;45.816;3.104;2023-12-20T00:25:55;98438.84;;;2.05;100.00
61039;BME280;46919;45.816;3.104;2023-12-20T00:28:21;98431.00;;;2.04;100.00
61039;BME280;46919;45.816;3.104;2023-12-20T00:30:47;98430.47;;;2.00;100.00
61039;BME280;46919;45.816;3.104;2023-12-20T00:33:12;98428.78;;;1.99;100.00
61039;BME280;46919;45.816;3.104;2023-12-20T00:35:37;98431.25;;;1.92;100.00
61039;BME280;46919;45.816;3.104;2023-12-20T00:38:03;98428.75;;;1.91;100.00
61039;BME280;46919;45.816;3.104;2023-12-20T00:40:30;98421.88;;;1.88;100.00
61039;BME280;46919;45.816;3.104;2023-12-20T00:42:55;98417.22;;;1.90;100.00
61039;BME280;46919;45.816;3.104;2023-12-20T00:45:21;98423.56;;;1.89;100.00
61039;BME280;46919;45.816;3.104;2023-12-20T00:47:46;98422.56;;;1.90;100.00
61039;BME280;46919;45.816;3.104;2023-12-20T00:50:11;98418.44;;;1.96;100.00
61039;BME280;46919;45.816;3.104;2023-12-20T00:52:37;98419.28;;;1.96;100.00
61039;BME280;46919;45.816;3.104;2023-12-20T00:55:03;98415.63;;;1.97;100.00
61039;BME280;46919;45.816;3.104;2023-12-20T00:57:29;98409.16;;;2.00;100.00
61039;BME280;46919;45.816;3.104;2023-12-20T00:59:54;98420.31;;;2.04;100.00
61039;BME280;46919;45.816;3.104;2023-12-20T01:02:20;98401.00;;;2.02;100.00
61039;BME280;46919;45.816;3.104;2023-12-20T01:04:45;98405.47;;;2.01;100.00
61039;BME280;46919;45.816;3.104;2023-12-20T01:07:10;98403.00;;;2.08;100.00
61039;BME280;46919;45.816;3.104;2023-12-20T01:09:36;98410.69;;;2.11;100.00
61039;BME280;46919;45.816;3.104;2023-12-20T01:12:01;98406.22;;;2.11;100.00
61039;BME280;46919;45.816;3.104;2023-12-20T01:14:27;98413.59;;;2.17;100.00
61039;BME280;46919;45.816;3.104;2023-12-20T01:16:52;98414.56;;;2.16;100.00
61039;BME280;46919;45.816;3.104;2023-12-20T01:19:17;98415.72;;;2.14;100.00
61039;BME280;46919;45.816;3.104;2023-12-20T01:21:43;98415.94;;;2.21;100.00
61039;BME280;46919;45.816;3.104;2023-12-20T01:24:09;98415.38;;;2.17;100.00
61039;BME280;46919;45.816;3.104;2023-12-20T01:26:34;98414.72;;;2.15;100.00
61039;BME280;46919;45.816;3.104;2023-12-20T01:29:00;98426.91;;;2.17;100.00
61039;BME280;46919;45.816;3.104;2023-12-20T01:31:26;98418.91;;;2.17;100.00
61039;BME280;46919;45.816;3.104;2023-12-20T01:33:52;98406.44;;;2.26;100.00
61039;BME280;46919;45.816;3.104;2023-12-20T01:36:18;98396.97;;;2.32;100.00
61039;BME280;46919;45.816;3.104;2023-12-20T01:38:43;98410.78;;;2.27;100.00
61039;BME280;46919;45.816;3.104;2023-12-20T01:41:08;98411.63;;;2.28;100.00
61039;BME280;46919;45.816;3.104;2023-12-20T01:43:34;98411.94;;;2.25;100.00
61039;BME280;46919;45.816;3.104;2023-12-20T01:46:00;98403.94;;;2.25;100.00
61039;BME280;46919;45.816;3.104;2023-12-20T01:48:26;98399.81;;;2.30;100.00
61039;BME280;46919;45.816;3.104;2023-12-20T01:50:53;98407.66;;;2.32;100.00
61039;BME280;46919;45.816;3.104;2023-12-20T01:53:21;98414.81;;;2.31;100.00
61039;BME280;46919;45.816;3.104;2023-12-20T01:55:47;98414.13;;;2.29;100.00
61039;BME280;46919;45.816;3.104;2023-12-20T01:58:15;98419.31;;;2.31;100.00
61039;BME280;46919;45.816;3.104;2023-12-20T02:00:41;98422.13;;;2.29;100.00
61039;BME280;46919;45.816;3.104;2023-12-20T02:03:06;98435.16;;;2.32;100.00
61039;BME280;46919;45.816;3.104;2023-12-20T02:05:35;98438.66;;;2.33;100.00
61039;BME280;46919;45.816;3.104;2023-12-20T02:08:01;98431.13;;;2.28;100.00
61039;BME280;46919;45.816;3.104;2023-12-20T02:10:27;98432.13;;;2.27;100.00
61039;BME280;46919;45.816;3.104;2023-12-20T02:12:52;98430.13;;;2.29;100.00
61039;BME280;46919;45.816;3.104;2023-12-20T02:15:18;98430.13;;;2.29;100.00
61039;BME280;46919;45.816;3.104;2023-12-20T02:17:43;98442.81;;;2.27;100.00
61039;BME280;46919;45.816;3.104;2023-12-20T02:20:09;98443.97;;;2.33;100.00
61039;BME280;46919;45.816;3.104;2023-12-20T02:22:35;98432.47;;;2.32;100.00
61039;BME280;46919;45.816;3.104;2023-12-20T02:25:00;98431.81;;;2.30;100.00
61039;BME280;46919;45.816;3.104;2023-12-20T02:27:27;98438.50;;;2.34;100.00
61039;BME280;46919;45.816;3.104;2023-12-20T02:29:53;98439.66;;;2.32;100.00
61039;BME280;46919;45.816;3.104;2023-12-20T02:32:18;98440.81;;;2.29;100.00
61039;BME280;46919;45.816;3.104;2023-12-20T02:34:46;98449.78;;;2.28;100.00
61039;BME280;46919;45.816;3.104;2023-12-20T02:37:12;98446.13;;;2.29;100.00
61039;BME280;46919;45.816;3.104;2023-12-20T02:39:37;98455.03;;;2.38;100.00
61039;BME280;46919;45.816;3.104;2023-12-20T02:42:03;98455.06;;;2.46;100.00
61039;BME280;46919;45.816;3.104;2023-12-20T02:44:28;98452.88;;;2.42;100.00
61039;BME280;46919;45.816;3.104;2023-12-20T02:46:54;98451.34;;;2.39;100.00
61039;BME280;46919;45.816;3.104;2023-12-20T02:49:19;98469.19;;;2.39;100.00
61039;BME280;46919;45.816;3.104;2023-12-20T02:51:45;98466.22;;;2.42;100.00
61039;BME280;46919;45.816;3.104;2023-12-20T02:54:11;98475.19;;;2.41;100.00
61039;BME280;46919;45.816;3.104;2023-12-20T02:56:37;98473.25;;;2.43;100.00
61039;BME280;46919;45.816;3.104;2023-12-20T02:59:02;98470.56;;;2.43;100.00
61039;BME280;46919;45.816;3.104;2023-12-20T03:01:31;98483.56;;;2.46;100.00
61039;BME280;46919;45.816;3.104;2023-12-20T03:03:56;98487.94;;;2.55;100.00
61039;BME280;46919;45.816;3.104;2023-12-20T03:06:22;98469.97;;;2.57;100.00
61039;BME280;46919;45.816;3.104;2023-12-20T03:08:47;98455.78;;;2.57;100.00
61039;BME280;46919;45.816;3.104;2023-12-20T03:11:13;98450.28;;;2.58;100.00
61039;BME280;46919;45.816;3.104;2023-12-20T03:13:38;98444.59;;;2.53;100.00
61039;BME280;46919;45.816;3.104;2023-12-20T03:16:11;98442.75;;;2.53;100.00
61039;BME280;46919;45.816;3.104;2023-12-20T03:18:36;98442.09;;;2.51;100.00
61039;BME280;46919;45.816;3.104;2023-12-20T03:21:02;98454.28;;;2.54;100.00
61039;BME280;46919;45.816;3.104;2023-12-20T03:23:29;98451.44;;;2.56;100.00
61039;BME280;46919;45.816;3.104;2023-12-20T03:25:55;98460.63;;;2.61;100.00
61039;BME280;46919;45.816;3.104;2023-12-20T03:28:21;98459.50;;;2.64;100.00
61039;BME280;46919;45.816;3.104;2023-12-20T03:30:46;98452.97;;;2.66;100.00
61039;BME280;46919;45.816;3.104;2023-12-20T03:33:12;98458.00;;;2.69;100.00
61039;BME280;46919;45.816;3.104;2023-12-20T03:35:37;98455.47;;;2.68;100.00
61039;BME280;46919;45.816;3.104;2023-12-20T03:38:03;98458.31;;;2.66;100.00
61039;BME280;46919;45.816;3.104;2023-12-20T03:40:28;98452.16;;;2.66;100.00
61039;BME280;46919;45.816;3.104;2023-12-20T03:42:54;98464.00;;;2.63;100.00
61039;BME280;46919;45.816;3.104;2023-12-20T03:45:19;98460.31;;;2.64;100.00
61039;BME280;46919;45.816;3.104;2023-12-20T03:47:44;98455.81;;;2.65;100.00
61039;BME280;46919;45.816;3.104;2023-12-20T03:50:10;98446.31;;;2.62;100.00
61039;BME280;46919;45.816;3.104;2023-12-20T03:52:35;98452.47;;;2.63;100.00
61039;BME280;46919;45.816;3.104;2023-12-20T03:55:01;98442.28;;;2.66;100.00
61039;BME280;46919;45.816;3.104;2023-12-20T03:57:26;98444.81;;;2.68;100.00
61039;BME280;46919;45.816;3.104;2023-12-20T03:59:51;98448.50;;;2.67;100.00
61039;BME280;46919;45.816;3.104;2023-12-20T04:02:17;98436.97;;;2.66;100.00
61039;BME280;46919;45.816;3.104;2023-12-20T04:04:43;98452.00;;;2.67;100.00
61039;BME280;46919;45.816;3.104;2023-12-20T04:07:08;98445.81;;;2.67;100.00
61039;BME280;46919;45.816;3.104;2023-12-20T04:09:34;98444.31;;;2.64;100.00
61039;BME280;46919;45.816;3.104;2023-12-20T04:11:59;98442.66;;;2.63;100.00
61039;BME280;46919;45.816;3.104;2023-12-20T04:14:25;98444.81;;;2.68;100.00
61039;BME280;46919;45.816;3.104;2023-12-20T04:16:50;98447.31;;;2.69;100.00
61039;BME280;46919;45.816;3.104;2023-12-20T04:19:15;98443.66;;;2.70;100.00
61039;BME280;46919;45.816;3.104;2023-12-20T04:21:41;98446.34;;;2.70;100.00
61039;BME280;46919;45.816;3.104;2023-12-20T04:24:06;98433.00;;;2.70;100.00
61039;BME280;46919;45.816;3.104;2023-12-20T04:26:32;98440.00;;;2.71;100.00
61039;BME280;46919;45.816;3.104;2023-12-20T04:28:57;98447.69;;;2.75;100.00
61039;BME280;46919;45.816;3.104;2023-12-20T04:31:23;98447.38;;;2.78;100.00
61039;BME280;46919;45.816;3.104;2023-12-20T04:33:48;98454.03;;;2.82;100.00
61039;BME280;46919;45.816;3.104;2023-12-20T04:36:14;98443.03;;;2.85;100.00
61039;BME280;46919;45.816;3.104;2023-12-20T04:38:39;98457.75;;;2.89;100.00
61039;BME280;46919;45.816;3.104;2023-12-20T04:41:05;98456.91;;;2.88;100.00
61039;BME280;46919;45.816;3.104;2023-12-20T04:43:30;98469.75;;;2.93;100.00
61039;BME280;46919;45.816;3.104;2023-12-20T04:45:56;98466.44;;;2.91;100.00
61039;BME280;46919;45.816;3.104;2023-12-20T04:48:21;98466.44;;;2.91;100.00
61039;BME280;46919;45.816;3.104;2023-12-20T04:50:46;98482.13;;;2.94;100.00
61039;BME280;46919;45.816;3.104;2023-12-20T04:53:12;98475.81;;;2.95;100.00
61039;BME280;46919;45.816;3.104;2023-12-20T04:55:37;98475.97;;;2.94;100.00
61039;BME280;46919;45.816;3.104;2023-12-20T04:58:04;98481.81;;;2.97;100.00
61039;BME280;46919;45.816;3.104;2023-12-20T05:00:29;98488.00;;;3.06;100.00
61039;BME280;46919;45.816;3.104;2023-12-20T05:02:55;98494.69;;;3.10;100.00
61039;BME280;46919;45.816;3.104;2023-12-20T05:05:20;98488.88;;;3.15;100.00
61039;BME280;46919;45.816;3.104;2023-12-20T05:07:46;98492.25;;;3.33;100.00
61039;BME280;46919;45.816;3.104;2023-12-20T05:10:11;98498.66;;;3.57;100.00
61039;BME280;46919;45.816;3.104;2023-12-20T05:12:37;98501.34;;;3.73;100.00
61039;BME280;46919;45.816;3.104;2023-12-20T05:15:03;98509.84;;;3.85;100.00
61039;BME280;46919;45.816;3.104;2023-12-20T05:17:28;98525.25;;;4.16;100.00
61039;BME280;46919;45.816;3.104;2023-12-20T05:19:54;98525.84;;;4.59;100.00
61039;BME280;46919;45.816;3.104;2023-12-20T05:22:19;98527.59;;;4.92;100.00
61039;BME280;46919;45.816;3.104;2023-12-20T05:24:45;98527.72;;;5.06;100.00
61039;BME280;46919;45.816;3.104;2023-12-20T05:27:10;98519.81;;;5.13;100.00
61039;BME280;46919;45.816;3.104;2023-12-20T05:29:36;98521.78;;;5.19;100.00
61039;BME280;46919;45.816;3.104;2023-12-20T05:32:02;98525.97;;;5.22;100.00
61039;BME280;46919;45.816;3.104;2023-12-20T05:34:30;98530.25;;;5.31;100.00
61039;BME280;46919;45.816;3.104;2023-12-20T05:36:55;98527.75;;;5.38;100.00
61039;BME280;46919;45.816;3.104;2023-12-20T05:39:21;98531.78;;;5.34;100.00
61039;BME280;46919;45.816;3.104;2023-12-20T05:41:47;98536.44;;;5.40;100.00
61039;BME280;46919;45.816;3.104;2023-12-20T05:44:13;98543.66;;;5.39;100.00
61039;BME280;46919;45.816;3.104;2023-12-20T05:46:38;98541.97;;;5.38;100.00
61039;BME280;46919;45.816;3.104;2023-12-20T05:49:05;98545.13;;;5.42;100.00
61039;BME280;46919;45.816;3.104;2023-12-20T05:51:30;98548.66;;;5.42;100.00
61039;BME280;46919;45.816;3.104;2023-12-20T05:53:56;98545.44;;;5.47;100.00
61039;BME280;46919;45.816;3.104;2023-12-20T05:56:21;98541.75;;;5.48;100.00
61039;BME280;46919;45.816;3.104;2023-12-20T05:58:47;98546.22;;;5.56;100.00
61039;BME280;46919;45.816;3.104;2023-12-20T06:01:14;98539.00;;;5.56;100.00
61039;BME280;46919;45.816;3.104;2023-12-20T06:03:43;98533.34;;;5.51;100.00
61039;BME280;46919;45.816;3.104;2023-12-20T06:06:09;98539.72;;;5.50;100.00
61039;BME280;46919;45.816;3.104;2023-12-20T06:08:34;98539.72;;;5.50;100.00
61039;BME280;46919;45.816;3.104;2023-12-20T06:11:00;98544.72;;;5.53;100.00
61039;BME280;46919;45.816;3.104;2023-12-20T06:13:25;98552.41;;;5.56;100.00
61039;BME280;46919;45.816;3.104;2023-12-20T06:15:52;98549.38;;;5.59;100.00
61039;BME280;46919;45.816;3.104;2023-12-20T06:18:17;98553.44;;;5.55;100.00
61039;BME280;46919;45.816;3.104;2023-12-20T06:20:43;98556.47;;;5.52;100.00
61039;BME280;46919;45.816;3.104;2023-12-20T06:23:08;98557.13;;;5.54;100.00
61039;BME280;46919;45.816;3.104;2023-12-20T06:25:33;98560.81;;;5.53;100.00
61039;BME280;46919;45.816;3.104;2023-12-20T06:27:59;98563.84;;;5.50;100.00
61039;BME280;46919;45.816;3.104;2023-12-20T06:30:24;98570.28;;;5.41;100.00
61039;BME280;46919;45.816;3.104;2023-12-20T06:32:50;98568.94;;;5.37;100.00
61039;BME280;46919;45.816;3.104;2023-12-20T06:35:16;98579.84;;;5.35;100.00
61039;BME280;46919;45.816;3.104;2023-12-20T06:37:41;98568.59;;;5.40;100.00
61039;BME280;46919;45.816;3.104;2023-12-20T06:40:09;98565.91;;;5.40;100.00
61039;BME280;46919;45.816;3.104;2023-12-20T06:42:35;98574.25;;;5.45;100.00
61039;BME280;46919;45.816;3.104;2023-12-20T06:45:00;98569.25;;;5.42;100.00
61039;BME280;46919;45.816;3.104;2023-12-20T06:47:26;98582.66;;;5.42;100.00
61039;BME280;46919;45.816;3.104;2023-12-20T06:49:52;98562.59;;;5.38;100.00
61039;BME280;46919;45.816;3.104;2023-12-20T06:52:17;98570.47;;;5.31;100.00
61039;BME280;46919;45.816;3.104;2023-12-20T06:54:42;98582.22;;;5.30;100.00
61039;BME280;46919;45.816;3.104;2023-12-20T06:57:08;98581.75;;;5.26;100.00
61039;BME280;46919;45.816;3.104;2023-12-20T06:59:40;98579.91;;;5.19;100.00
61039;BME280;46919;45.816;3.104;2023-12-20T07:02:06;98585.28;;;5.19;100.00
61039;BME280;46919;45.816;3.104;2023-12-20T07:04:31;98586.78;;;5.13;100.00
61039;BME280;46919;45.816;3.104;2023-12-20T07:06:57;98600.38;;;5.12;100.00
61039;BME280;46919;45.816;3.104;2023-12-20T07:09:25;98595.19;;;5.10;100.00
61039;BME280;46919;45.816;3.104;2023-12-20T07:11:52;98596.53;;;5.06;100.00
61039;BME280;46919;45.816;3.104;2023-12-20T07:14:17;98597.56;;;4.97;100.00
61039;BME280;46919;45.816;3.104;2023-12-20T07:16:43;98612.31;;;4.93;100.00
61039;BME280;46919;45.816;3.104;2023-12-20T07:19:08;98609.47;;;4.86;100.00
61039;BME280;46919;45.816;3.104;2023-12-20T07:21:34;98605.97;;;4.85;100.00
61039;BME280;46919;45.816;3.104;2023-12-20T07:23:59;98619.53;;;4.84;100.00
61039;BME280;46919;45.816;3.104;2023-12-20T07:26:24;98612.00;;;4.79;100.00
61039;BME280;46919;45.816;3.104;2023-12-20T07:28:50;98622.72;;;4.79;100.00
61039;BME280;46919;45.816;3.104;2023-12-20T07:31:16;98628.91;;;4.80;100.00
61039;BME280;46919;45.816;3.104;2023-12-20T07:33:42;98637.94;;;4.79;100.00
61039;BME280;46919;45.816;3.104;2023-12-20T07:36:07;98635.41;;;4.77;100.00
61039;BME280;46919;45.816;3.104;2023-12-20T07:38:33;98645.63;;;4.82;100.00
61039;BME280;46919;45.816;3.104;2023-12-20T07:40:58;98650.31;;;4.88;100.00
61039;BME280;46919;45.816;3.104;2023-12-20T07:43:24;98648.13;;;4.92;100.00
61039;BME280;46919;45.816;3.104;2023-12-20T07:45:49;98649.28;;;4.97;100.00
61039;BME280;46919;45.816;3.104;2023-12-20T07:48:15;98666.19;;;4.98;100.00
61039;BME280;46919;45.816;3.104;2023-12-20T07:50:41;98672.56;;;4.97;100.00
61039;BME280;46919;45.816;3.104;2023-12-20T07:53:06;98682.44;;;4.96;100.00
61039;BME280;46919;45.816;3.104;2023-12-20T07:55:32;98677.94;;;4.97;100.00
61039;BME280;46919;45.816;3.104;2023-12-20T07:57:57;98684.59;;;5.01;100.00
61039;BME280;46919;45.816;3.104;2023-12-20T08:00:23;98691.47;;;5.03;100.00
61039;BME280;46919;45.816;3.104;2023-12-20T08:02:48;98689.28;;;5.07;100.00
61039;BME280;46919;45.816;3.104;2023-12-20T08:05:14;98696.34;;;5.08;100.00
61039;BME280;46919;45.816;3.104;2023-12-20T08:07:39;98697.50;;;5.05;100.00
61039;BME280;46919;45.816;3.104;2023-12-20T08:10:05;98704.88;;;5.03;100.00
61039;BME280;46919;45.816;3.104;2023-12-20T08:12:31;98708.88;;;4.99;100.00
61039;BME280;46919;45.816;3.104;2023-12-20T08:14:56;98719.59;;;4.99;100.00
61039;BME280;46919;45.816;3.104;2023-12-20T08:17:22;98719.59;;;4.99;100.00
61039;BME280;46919;45.816;3.104;2023-12-20T08:19:48;98717.09;;;4.98;100.00
61039;BME280;46919;45.816;3.104;2023-12-20T08:22:14;98722.97;;;5.01;100.00
61039;BME280;46919;45.816;3.104;2023-12-20T08:24:39;98725.47;;;5.03;100.00
61039;BME280;46919;45.816;3.104;2023-12-20T08:27:05;98732.50;;;5.04;100.00
61039;BME280;46919;45.816;3.104;2023-12-20T08:29:31;98738.19;;;5.01;100.00
61039;BME280;46919;45.816;3.104;2023-12-20T08:31:56;98748.56;;;5.04;100.00
61039;BME280;46919;45.816;3.104;2023-12-20T08:34:22;98750.59;;;5.02;100.00
61039;BME280;46919;45.816;3.104;2023-12-20T08:36:50;98752.28;;;5.03;100.00
61039;BME280;46919;45.816;3.104;2023-12-20T08:39:15;98757.47;;;5.04;100.00
61039;BME280;46919;45.816;3.104;2023-12-20T08:41:40;98759.81;;;5.16;100.00
61039;BME280;46919;45.816;3.104;2023-12-20T08:44:06;98760.94;;;5.21;100.00
61039;BME280;46919;45.816;3.104;2023-12-20T08:46:31;98756.44;;;5.22;100.00
61039;BME280;46919;45.816;3.104;2023-12-20T08:48:57;98772.00;;;5.18;100.00
61039;BME280;46919;45.816;3.104;2023-12-20T08:51:22;98779.38;;;5.16;100.00
61039;BME280;46919;45.816;3.104;2023-12-20T08:53:50;98779.72;;;5.13;100.00
61039;BME280;46919;45.816;3.104;2023-12-20T08:56:16;98769.66;;;5.07;100.00
61039;BME280;46919;45.816;3.104;2023-12-20T08:58:43;98783.72;;;5.09;100.00
61039;BME280;46919;45.816;3.104;2023-12-20T09:01:09;98772.19;;;5.08;100.00
61039;BME280;46919;45.816;3.104;2023-12-20T09:03:34;98777.06;;;5.05;100.00
61039;BME280;46919;45.816;3.104;2023-12-20T09:06:00;98773.88;;;5.10;100.00
61039;BME280;46919;45.816;3.104;2023-12-20T09:08:25;98779.22;;;5.18;100.00
61039;BME280;46919;45.816;3.104;2023-12-20T09:10:51;98773.19;;;5.16;100.00
61039;BME280;46919;45.816;3.104;2023-12-20T09:13:17;98775.38;;;5.20;100.00
61039;BME280;46919;45.816;3.104;2023-12-20T09:15:42;98780.06;;;5.26;100.00
61039;BME280;46919;45.816;3.104;2023-12-20T09:18:08;98787.09;;;5.28;100.00
61039;BME280;46919;45.816;3.104;2023-12-20T09:20:34;98783.41;;;5.29;100.00
61039;BME280;46919;45.816;3.104;2023-12-20T09:22:59;98792.28;;;5.29;100.00
61039;BME280;46919;45.816;3.104;2023-12-20T09:25:24;98790.25;;;5.31;100.00
61039;BME280;46919;45.816;3.104;2023-12-20T09:27:51;98793.63;;;5.33;100.00
61039;BME280;46919;45.816;3.104;2023-12-20T09:30:18;98794.13;;;5.29;100.00
61039;BME280;46919;45.816;3.104;2023-12-20T09:32:43;98798.47;;;5.21;100.00
61039;BME280;46919;45.816;3.104;2023-12-20T09:35:09;98795.13;;;5.19;100.00
61039;BME280;46919;45.816;3.104;2023-12-20T09:37:34;98787.44;;;5.16;100.00
61039;BME280;46919;45.816;3.104;2023-12-20T09:40:00;98798.66;;;5.12;100.00
61039;BME280;46919;45.816;3.104;2023-12-20T09:42:47;98793.44;;;5.18;100.00
61039;BME280;46919;45.816;3.104;2023-12-20T09:45:15;98791.97;;;5.16;100.00
61039;BME280;46919;45.816;3.104;2023-12-20T09:47:43;98796.47;;;5.15;100.00
61039;BME280;46919;45.816;3.104;2023-12-20T09:50:09;98790.75;;;5.18;100.00
61039;BME280;46919;45.816;3.104;2023-12-20T09:52:36;98801.84;;;5.23;100.00
61039;BME280;46919;45.816;3.104;2023-12-20T09:55:03;98800.63;;;5.34;100.00
61039;BME280;46919;45.816;3.104;2023-12-20T09:57:31;98799.63;;;5.52;100.00
61039;BME280;46919;45.816;3.104;2023-12-20T09:59:57;98805.44;;;5.72;100.00
61039;BME280;46919;45.816;3.104;2023-12-20T10:02:25;98805.91;;;5.92;100.00
61039;BME280;46919;45.816;3.104;2023-12-20T10:04:52;98803.22;;;6.00;100.00
61039;BME280;46919;45.816;3.104;2023-12-20T10:07:18;98800.72;;;5.98;100.00
61039;BME280;46919;45.816;3.104;2023-12-20T10:09:44;98808.09;;;6.05;100.00
61039;BME280;46919;45.816;3.104;2023-12-20T10:12:09;98808.38;;;6.10;100.00
61039;BME280;46919;45.816;3.104;2023-12-20T10:14:34;98810.69;;;6.21;100.00
61039;BME280;46919;45.816;3.104;2023-12-20T10:17:02;98805.63;;;6.34;100.00
61039;BME280;46919;45.816;3.104;2023-12-20T10:19:28;98802.53;;;6.46;100.00
61039;BME280;46919;45.816;3.104;2023-12-20T10:21:54;98801.72;;;6.37;100.00
61039;BME280;46919;45.816;3.104;2023-12-20T10:24:19;98809.38;;;6.17;100.00
61039;BME280;46919;45.816;3.104;2023-12-20T10:26:45;98808.94;;;5.97;100.00
61039;BME280;46919;45.816;3.104;2023-12-20T10:29:11;98814.16;;;5.82;100.00
61039;BME280;46919;45.816;3.104;2023-12-20T10:31:36;98811.13;;;5.77;100.00
61039;BME280;46919;45.816;3.104;2023-12-20T10:34:04;98798.41;;;5.79;100.00
61039;BME280;46919;45.816;3.104;2023-12-20T10:36:31;98797.22;;;5.81;100.00
61039;BME280;46919;45.816;3.104;2023-12-20T10:38:58;98805.09;;;5.83;100.00
61039;BME280;46919;45.816;3.104;2023-12-20T10:41:29;98794.50;;;5.90;100.00
61039;BME280;46919;45.816;3.104;2023-12-20T10:43:59;98799.34;;;5.94;100.00
61039;BME280;46919;45.816;3.104;2023-12-20T10:46:27;98801.72;;;5.97;98.73
61039;BME280;46919;45.816;3.104;2023-12-20T10:48:54;98800.19;;;6.03;99.69
61039;BME280;46919;45.816;3.104;2023-12-20T10:51:20;98789.94;;;6.07;98.07
61039;BME280;46919;45.816;3.104;2023-12-20T10:53:50;98780.84;;;6.16;96.03
61039;BME280;46919;45.816;3.104;2023-12-20T10:56:17;98792.03;;;6.28;93.35
61039;BME280;46919;45.816;3.104;2023-12-20T10:58:43;98776.56;;;6.38;91.49
61039;BME280;46919;45.816;3.104;2023-12-20T11:01:12;98778.50;;;6.52;91.02
61039;BME280;46919;45.816;3.104;2023-12-20T11:03:38;98769.72;;;6.59;90.45
61039;BME280;46919;45.816;3.104;2023-12-20T11:06:27;98765.66;;;6.63;92.02
61039;BME280;46919;45.816;3.104;2023-12-20T11:09:03;98763.88;;;6.55;93.77
61039;BME280;46919;45.816;3.104;2023-12-20T11:14:47;98751.53;;;6.46;94.69
61039;BME280;46919;45.816;3.104;2023-12-20T11:17:14;98738.16;;;6.38;94.13
61039;BME280;46919;45.816;3.104;2023-12-20T11:22:24;98737.59;;;6.42;96.36
61039;BME280;46919;45.816;3.104;2023-12-20T11:24:51;98729.72;;;6.41;97.10
61039;BME280;46919;45.816;3.104;2023-12-20T11:27:18;98724.22;;;6.34;96.95
61039;BME280;46919;45.816;3.104;2023-12-20T11:29:51;98729.50;;;6.19;95.61
61039;BME280;46919;45.816;3.104;2023-12-20T11:34:59;98719.59;;;6.51;93.42
61039;BME280;46919;45.816;3.104;2023-12-20T11:37:38;98718.31;;;6.85;91.53
61039;BME280;46919;45.816;3.104;2023-12-20T11:40:11;98713.28;;;7.05;89.39
61039;BME280;46919;45.816;3.104;2023-12-20T11:42:41;98705.78;;;7.15;89.29
61039;BME280;46919;45.816;3.104;2023-12-20T11:45:19;98702.78;;;7.33;88.58
61039;BME280;46919;45.816;3.104;2023-12-20T11:47:48;98708.25;;;7.40;89.90
61039;BME280;46919;45.816;3.104;2023-12-20T11:50:21;98710.28;;;7.38;89.40
61039;BME280;46919;45.816;3.104;2023-12-20T11:52:48;98714.34;;;7.19;89.42
61039;BME280;46919;45.816;3.104;2023-12-20T11:55:14;98719.19;;;7.00;90.49
61039;BME280;46919;45.816;3.104;2023-12-20T11:57:40;98708.72;;;6.91;92.31
61039;BME280;46919;45.816;3.104;2023-12-20T12:00:06;98714.09;;;6.91;93.37
61039;BME280;46919;45.816;3.104;2023-12-20T12:02:31;98725.31;;;6.94;93.94
61039;BME280;46919;45.816;3.104;2023-12-20T12:04:57;98729.38;;;6.90;94.19
61039;BME280;46919;45.816;3.104;2023-12-20T12:07:24;98718.13;;;6.86;94.13
61039;BME280;46919;45.816;3.104;2023-12-20T12:09:50;98715.28;;;6.88;94.11
61039;BME280;46919;45.816;3.104;2023-12-20T12:12:16;98709.72;;;6.89;94.02
61039;BME280;46919;45.816;3.104;2023-12-20T12:14:44;98705.66;;;6.94;93.44
61039;BME280;46919;45.816;3.104;2023-12-20T12:17:13;98699.84;;;7.05;93.93
61039;BME280;46919;45.816;3.104;2023-12-20T12:19:40;98694.06;;;7.31;92.84
61039;BME280;46919;45.816;3.104;2023-12-20T12:22:06;98694.69;;;7.48;91.82
61039;BME280;46919;45.816;3.104;2023-12-20T12:24:40;98694.53;;;7.50;91.08
61039;BME280;46919;45.816;3.104;2023-12-20T12:27:06;98681.63;;;7.45;91.61
61039;BME280;46919;45.816;3.104;2023-12-20T12:29:32;98681.06;;;7.79;90.56
61039;BME280;46919;45.816;3.104;2023-12-20T12:31:58;98677.44;;;7.87;89.24
61039;BME280;46919;45.816;3.104;2023-12-20T12:34:23;98682.50;;;7.97;88.45
61039;BME280;46919;45.816;3.104;2023-12-20T12:36:49;98689.28;;;8.08;87.86
61039;BME280;46919;45.816;3.104;2023-12-20T12:39:15;98686.91;;;8.20;87.58
61039;BME280;46919;45.816;3.104;2023-12-20T12:41:42;98679.34;;;8.08;82.93
61039;BME280;46919;45.816;3.104;2023-12-20T12:44:08;98676.06;;;7.76;83.14
61039;BME280;46919;45.816;3.104;2023-12-20T12:46:33;98687.38;;;7.87;82.62
61039;BME280;46919;45.816;3.104;2023-12-20T12:48:59;98684.28;;;8.05;81.96
61039;BME280;46919;45.816;3.104;2023-12-20T12:51:25;98683.06;;;8.07;78.72
61039;BME280;46919;45.816;3.104;2023-12-20T12:53:50;98687.53;;;8.00;79.14
61039;BME280;46919;45.816;3.104;2023-12-20T12:56:16;98675.31;;;7.83;75.46
61039;BME280;46919;45.816;3.104;2023-12-20T12:58:42;98680.69;;;7.53;77.77
61039;BME280;46919;45.816;3.104;2023-12-20T13:01:07;98689.50;;;7.32;80.21
61039;BME280;46919;45.816;3.104;2023-12-20T13:03:33;98689.47;;;7.17;81.69
61039;BME280;46919;45.816;3.104;2023-12-20T13:05:59;98692.69;;;6.97;82.94